Archival Weather

Granbury Rgnl

Granbury, Texas (KGDJ)

Report from: Monday, January 29, 2024 8:55 PM UTC
Current time: Tuesday, June 18, 2024 11:54 AM UTC

Current weather – Weather history – Daily summaries
Weather forecast

Temperature21.9°C (71.4°F)
Dew point2.3°C (36.1°F)
Winds 9 kts (4.6 m/s, 10.4 mph) West (280°)
Visibility10 mi. (16.1 km)
Clouds Sky clear
Altimeter30.22 in.Hg (1023 mB)
Relative humidity27 %
Density altitude576 ft. (176 m)
Remarks Fully automated report
Automated weather observing station with precipitation discriminator
Flight conditions Visual Meteorological Conditions
Raw dataKGDJ 292055Z AUTO 28009KT 10SM CLR 22/02 A3022 RMK AO2 T02190023
An error has occurred. This application may no longer respond until reloaded. Reload 🗙